Terminal Aerodrome Forecast
Issued by NWS Flagstaff, AZ

Home | Current Version | Previous Version | Text Only | Print | Product List | Glossary On
Versions: 1 2 3 4 5 6 7 8 9 10 11 12
000
FTUS45 KFGZ 222300
TAFINW
TAF
KINW 222323Z 2300/2324 VRB06KT P6SM BKN130
     FM230200 VRB05KT P6SM BKN130
     FM231900 19011KT P6SM BKN110=

USA.gov is the U.S. government's official web portal to all federal, state and local government web resources and services.